sensor_id;sensor_type;location;lat;lon;timestamp;temperature;humidity
20504;DHT22;10410;51.046;6.980;2023-09-18T00:05:28;20.90;99.90
20504;DHT22;10410;51.046;6.980;2023-09-18T00:12:29;20.80;99.90
20504;DHT22;10410;51.046;6.980;2023-09-18T00:19:29;20.70;99.90
20504;DHT22;10410;51.046;6.980;2023-09-18T00:26:31;20.70;99.90
20504;DHT22;10410;51.046;6.980;2023-09-18T00:33:31;20.60;99.90
20504;DHT22;10410;51.046;6.980;2023-09-18T00:40:32;20.60;99.90
20504;DHT22;10410;51.046;6.980;2023-09-18T00:47:33;20.50;99.90
20504;DHT22;10410;51.046;6.980;2023-09-18T00:54:34;20.40;99.90
20504;DHT22;10410;51.046;6.980;2023-09-18T01:01:36;20.30;99.90
20504;DHT22;10410;51.046;6.980;2023-09-18T01:08:36;20.30;99.90
20504;DHT22;10410;51.046;6.980;2023-09-18T01:15:41;20.30;99.90
20504;DHT22;10410;51.046;6.980;2023-09-18T01:22:45;20.20;99.90
20504;DHT22;10410;51.046;6.980;2023-09-18T01:29:46;20.20;99.90
20504;DHT22;10410;51.046;6.980;2023-09-18T01:36:47;20.20;99.90
20504;DHT22;10410;51.046;6.980;2023-09-18T01:43:48;20.10;99.90
20504;DHT22;10410;51.046;6.980;2023-09-18T01:50:48;20.10;99.90
20504;DHT22;10410;51.046;6.980;2023-09-18T01:57:49;20.20;99.90
20504;DHT22;10410;51.046;6.980;2023-09-18T02:04:49;20.00;99.90
20504;DHT22;10410;51.046;6.980;2023-09-18T02:12:06;20.00;99.90
20504;DHT22;10410;51.046;6.980;2023-09-18T02:19:07;20.00;99.90
20504;DHT22;10410;51.046;6.980;2023-09-18T02:26:09;20.10;99.90
20504;DHT22;10410;51.046;6.980;2023-09-18T02:33:11;20.20;99.90
20504;DHT22;10410;51.046;6.980;2023-09-18T02:40:11;20.30;99.90
20504;DHT22;10410;51.046;6.980;2023-09-18T02:47:13;20.50;99.90
20504;DHT22;10410;51.046;6.980;2023-09-18T02:54:13;20.60;99.90
20504;DHT22;10410;51.046;6.980;2023-09-18T03:01:14;20.60;99.90
20504;DHT22;10410;51.046;6.980;2023-09-18T03:08:15;20.60;99.90
20504;DHT22;10410;51.046;6.980;2023-09-18T03:15:18;20.60;99.90
20504;DHT22;10410;51.046;6.980;2023-09-18T03:22:19;20.60;99.90
20504;DHT22;10410;51.046;6.980;2023-09-18T03:29:20;20.60;99.90
20504;DHT22;10410;51.046;6.980;2023-09-18T03:36:22;20.50;99.90
20504;DHT22;10410;51.046;6.980;2023-09-18T03:43:24;20.50;99.90
20504;DHT22;10410;51.046;6.980;2023-09-18T03:50:24;20.40;99.90
20504;DHT22;10410;51.046;6.980;2023-09-18T03:57:27;20.30;99.90
20504;DHT22;10410;51.046;6.980;2023-09-18T04:04:28;20.30;99.90
20504;DHT22;10410;51.046;6.980;2023-09-18T04:11:28;20.30;99.90
20504;DHT22;10410;51.046;6.980;2023-09-18T04:18:32;20.30;99.90
20504;DHT22;10410;51.046;6.980;2023-09-18T04:25:33;20.30;99.90
20504;DHT22;10410;51.046;6.980;2023-09-18T04:32:33;20.20;99.90
20504;DHT22;10410;51.046;6.980;2023-09-18T04:39:34;20.30;99.90
20504;DHT22;10410;51.046;6.980;2023-09-18T04:46:36;20.30;99.90
20504;DHT22;10410;51.046;6.980;2023-09-18T04:53:37;20.20;99.90
20504;DHT22;10410;51.046;6.980;2023-09-18T05:00:37;20.20;99.90
20504;DHT22;10410;51.046;6.980;2023-09-18T05:07:38;20.20;99.90
20504;DHT22;10410;51.046;6.980;2023-09-18T05:14:39;20.10;99.90
20504;DHT22;10410;51.046;6.980;2023-09-18T05:21:39;20.10;99.90
20504;DHT22;10410;51.046;6.980;2023-09-18T05:28:40;20.00;99.90
20504;DHT22;10410;51.046;6.980;2023-09-18T05:35:42;20.00;99.90
20504;DHT22;10410;51.046;6.980;2023-09-18T05:42:43;20.00;99.90
20504;DHT22;10410;51.046;6.980;2023-09-18T05:49:44;19.90;99.90
20504;DHT22;10410;51.046;6.980;2023-09-18T05:56:44;19.90;99.90
20504;DHT22;10410;51.046;6.980;2023-09-18T06:03:45;20.00;99.90
20504;DHT22;10410;51.046;6.980;2023-09-18T06:10:45;19.90;99.90
20504;DHT22;10410;51.046;6.980;2023-09-18T06:17:46;20.00;99.90
20504;DHT22;10410;51.046;6.980;2023-09-18T06:24:46;20.00;99.90
20504;DHT22;10410;51.046;6.980;2023-09-18T06:31:47;20.10;99.90
20504;DHT22;10410;51.046;6.980;2023-09-18T06:38:47;20.20;99.90
20504;DHT22;10410;51.046;6.980;2023-09-18T06:45:48;20.30;99.90
20504;DHT22;10410;51.046;6.980;2023-09-18T06:52:49;20.40;99.90
20504;DHT22;10410;51.046;6.980;2023-09-18T06:59:49;20.50;99.90
20504;DHT22;10410;51.046;6.980;2023-09-18T07:06:50;20.60;99.90
20504;DHT22;10410;51.046;6.980;2023-09-18T07:13:52;20.60;99.90
20504;DHT22;10410;51.046;6.980;2023-09-18T07:20:52;20.70;99.90
20504;DHT22;10410;51.046;6.980;2023-09-18T07:27:53;20.90;99.90
20504;DHT22;10410;51.046;6.980;2023-09-18T07:34:54;21.00;99.90
20504;DHT22;10410;51.046;6.980;2023-09-18T07:41:54;21.20;99.90
20504;DHT22;10410;51.046;6.980;2023-09-18T07:48:56;21.30;99.90
20504;DHT22;10410;51.046;6.980;2023-09-18T07:55:57;21.40;99.90
20504;DHT22;10410;51.046;6.980;2023-09-18T08:02:59;21.50;99.90
20504;DHT22;10410;51.046;6.980;2023-09-18T08:10:04;21.50;99.90
20504;DHT22;10410;51.046;6.980;2023-09-18T08:17:06;21.60;99.90
20504;DHT22;10410;51.046;6.980;2023-09-18T08:24:09;21.60;99.90
20504;DHT22;10410;51.046;6.980;2023-09-18T08:31:10;21.60;99.90
20504;DHT22;10410;51.046;6.980;2023-09-18T08:38:11;21.60;99.90
20504;DHT22;10410;51.046;6.980;2023-09-18T08:45:16;21.60;99.90
20504;DHT22;10410;51.046;6.980;2023-09-18T08:52:18;21.70;99.90
20504;DHT22;10410;51.046;6.980;2023-09-18T08:59:21;21.70;99.90
20504;DHT22;10410;51.046;6.980;2023-09-18T09:06:22;21.80;99.90
20504;DHT22;10410;51.046;6.980;2023-09-18T09:13:23;21.90;99.90
20504;DHT22;10410;51.046;6.980;2023-09-18T09:20:41;21.90;99.90
20504;DHT22;10410;51.046;6.980;2023-09-18T09:27:42;22.10;99.90
20504;DHT22;10410;51.046;6.980;2023-09-18T09:34:43;22.10;99.90
20504;DHT22;10410;51.046;6.980;2023-09-18T09:41:48;22.20;99.90
20504;DHT22;10410;51.046;6.980;2023-09-18T09:49:06;22.30;99.90
20504;DHT22;10410;51.046;6.980;2023-09-18T09:56:06;22.30;99.90
20504;DHT22;10410;51.046;6.980;2023-09-18T10:03:07;22.40;99.90
20504;DHT22;10410;51.046;6.980;2023-09-18T10:10:09;22.50;99.90
20504;DHT22;10410;51.046;6.980;2023-09-18T10:17:18;22.60;99.90
20504;DHT22;10410;51.046;6.980;2023-09-18T10:24:24;22.80;99.90
20504;DHT22;10410;51.046;6.980;2023-09-18T10:31:28;23.00;99.90
20504;DHT22;10410;51.046;6.980;2023-09-18T10:38:30;23.20;99.90
20504;DHT22;10410;51.046;6.980;2023-09-18T10:45:31;23.40;99.90
20504;DHT22;10410;51.046;6.980;2023-09-18T10:52:31;23.60;99.90
20504;DHT22;10410;51.046;6.980;2023-09-18T10:59:32;23.70;99.90
20504;DHT22;10410;51.046;6.980;2023-09-18T11:13:53;23.60;99.90
20504;DHT22;10410;51.046;6.980;2023-09-18T11:21:12;23.70;99.90
20504;DHT22;10410;51.046;6.980;2023-09-18T11:28:23;24.00;99.90
20504;DHT22;10410;51.046;6.980;2023-09-18T11:35:25;24.20;99.90
20504;DHT22;10410;51.046;6.980;2023-09-18T11:42:25;24.40;99.90
20504;DHT22;10410;51.046;6.980;2023-09-18T11:49:27;24.50;99.90
20504;DHT22;10410;51.046;6.980;2023-09-18T11:56:28;24.70;99.90
20504;DHT22;10410;51.046;6.980;2023-09-18T12:03:28;24.90;99.90
20504;DHT22;10410;51.046;6.980;2023-09-18T12:10:32;25.10;99.90
20504;DHT22;10410;51.046;6.980;2023-09-18T12:17:32;25.20;99.90
20504;DHT22;10410;51.046;6.980;2023-09-18T12:24:33;25.50;99.90
20504;DHT22;10410;51.046;6.980;2023-09-18T12:31:33;25.70;99.90
20504;DHT22;10410;51.046;6.980;2023-09-18T12:38:34;25.80;99.90
20504;DHT22;10410;51.046;6.980;2023-09-18T12:45:37;25.80;99.90
20504;DHT22;10410;51.046;6.980;2023-09-18T12:52:38;26.10;99.90
20504;DHT22;10410;51.046;6.980;2023-09-18T12:59:38;26.40;99.90
20504;DHT22;10410;51.046;6.980;2023-09-18T13:06:39;26.70;99.90
20504;DHT22;10410;51.046;6.980;2023-09-18T13:13:40;26.80;99.90
20504;DHT22;10410;51.046;6.980;2023-09-18T13:20:41;26.70;99.90
20504;DHT22;10410;51.046;6.980;2023-09-18T13:27:41;27.00;99.90
20504;DHT22;10410;51.046;6.980;2023-09-18T13:34:42;27.30;99.90
20504;DHT22;10410;51.046;6.980;2023-09-18T13:41:42;27.30;99.90
20504;DHT22;10410;51.046;6.980;2023-09-18T13:48:43;27.40;99.90
20504;DHT22;10410;51.046;6.980;2023-09-18T13:55:43;27.70;99.50
20504;DHT22;10410;51.046;6.980;2023-09-18T14:02:44;27.80;99.40
20504;DHT22;10410;51.046;6.980;2023-09-18T14:09:44;28.00;98.40
20504;DHT22;10410;51.046;6.980;2023-09-18T14:16:47;28.20;97.80
20504;DHT22;10410;51.046;6.980;2023-09-18T14:23:47;28.40;98.50
20504;DHT22;10410;51.046;6.980;2023-09-18T14:30:48;28.60;98.10
20504;DHT22;10410;51.046;6.980;2023-09-18T14:37:48;28.50;96.50
20504;DHT22;10410;51.046;6.980;2023-09-18T14:44:49;29.00;95.90
20504;DHT22;10410;51.046;6.980;2023-09-18T14:51:50;29.40;94.00
20504;DHT22;10410;51.046;6.980;2023-09-18T14:58:53;29.70;93.50
20504;DHT22;10410;51.046;6.980;2023-09-18T15:05:55;29.90;92.40
20504;DHT22;10410;51.046;6.980;2023-09-18T15:12:55;30.00;91.60
20504;DHT22;10410;51.046;6.980;2023-09-18T15:19:56;29.90;91.00
20504;DHT22;10410;51.046;6.980;2023-09-18T15:26:56;29.50;91.90
20504;DHT22;10410;51.046;6.980;2023-09-18T15:33:57;29.60;90.90
20504;DHT22;10410;51.046;6.980;2023-09-18T15:40:58;29.50;91.20
20504;DHT22;10410;51.046;6.980;2023-09-18T15:47:58;28.50;91.10
20504;DHT22;10410;51.046;6.980;2023-09-18T15:54:59;27.50;92.30
20504;DHT22;10410;51.046;6.980;2023-09-18T16:01:59;26.60;92.80
20504;DHT22;10410;51.046;6.980;2023-09-18T16:09:00;25.90;93.80
20504;DHT22;10410;51.046;6.980;2023-09-18T16:16:01;25.50;94.20
20504;DHT22;10410;51.046;6.980;2023-09-18T16:23:03;25.40;94.90
20504;DHT22;10410;51.046;6.980;2023-09-18T16:30:04;25.20;95.10
20504;DHT22;10410;51.046;6.980;2023-09-18T16:37:06;25.10;95.40
20504;DHT22;10410;51.046;6.980;2023-09-18T16:44:06;24.90;95.80
20504;DHT22;10410;51.046;6.980;2023-09-18T16:51:08;24.80;96.00
20504;DHT22;10410;51.046;6.980;2023-09-18T16:58:09;24.60;96.40
20504;DHT22;10410;51.046;6.980;2023-09-18T17:05:09;24.40;96.50
20504;DHT22;10410;51.046;6.980;2023-09-18T17:12:10;24.30;96.80
20504;DHT22;10410;51.046;6.980;2023-09-18T17:19:10;24.10;97.20
20504;DHT22;10410;51.046;6.980;2023-09-18T17:26:12;23.90;97.50
20504;DHT22;10410;51.046;6.980;2023-09-18T17:33:13;23.90;98.10
20504;DHT22;10410;51.046;6.980;2023-09-18T17:40:13;23.90;98.10
20504;DHT22;10410;51.046;6.980;2023-09-18T17:47:15;23.80;98.50
20504;DHT22;10410;51.046;6.980;2023-09-18T17:54:22;23.70;98.60
20504;DHT22;10410;51.046;6.980;2023-09-18T18:01:22;23.60;98.90
20504;DHT22;10410;51.046;6.980;2023-09-18T18:08:23;23.50;99.10
20504;DHT22;10410;51.046;6.980;2023-09-18T18:15:23;23.50;98.90
20504;DHT22;10410;51.046;6.980;2023-09-18T18:22:24;22.30;99.90
20504;DHT22;10410;51.046;6.980;2023-09-18T18:29:25;19.80;99.90
20504;DHT22;10410;51.046;6.980;2023-09-18T18:36:27;18.00;99.90
20504;DHT22;10410;51.046;6.980;2023-09-18T18:43:29;17.20;99.90
20504;DHT22;10410;51.046;6.980;2023-09-18T18:50:29;16.90;99.90
20504;DHT22;10410;51.046;6.980;2023-09-18T18:57:30;16.90;99.90
20504;DHT22;10410;51.046;6.980;2023-09-18T19:04:31;17.10;99.90
20504;DHT22;10410;51.046;6.980;2023-09-18T19:11:32;17.20;99.90
20504;DHT22;10410;51.046;6.980;2023-09-18T19:18:32;17.30;99.90
20504;DHT22;10410;51.046;6.980;2023-09-18T19:25:33;17.30;99.90
20504;DHT22;10410;51.046;6.980;2023-09-18T19:32:45;17.40;99.90
20504;DHT22;10410;51.046;6.980;2023-09-18T19:39:46;17.40;99.90
20504;DHT22;10410;51.046;6.980;2023-09-18T19:46:47;17.30;99.90
20504;DHT22;10410;51.046;6.980;2023-09-18T19:53:47;17.30;99.90
20504;DHT22;10410;51.046;6.980;2023-09-18T20:00:48;17.20;99.90
20504;DHT22;10410;51.046;6.980;2023-09-18T20:07:49;17.10;99.90
20504;DHT22;10410;51.046;6.980;2023-09-18T20:14:49;17.10;99.90
20504;DHT22;10410;51.046;6.980;2023-09-18T20:21:52;17.00;99.90
20504;DHT22;10410;51.046;6.980;2023-09-18T20:28:53;17.00;99.90
20504;DHT22;10410;51.046;6.980;2023-09-18T20:36:01;17.00;99.90
20504;DHT22;10410;51.046;6.980;2023-09-18T20:43:02;17.00;99.90
20504;DHT22;10410;51.046;6.980;2023-09-18T20:50:04;17.00;99.90
20504;DHT22;10410;51.046;6.980;2023-09-18T20:57:05;17.00;99.90
20504;DHT22;10410;51.046;6.980;2023-09-18T21:04:06;17.00;99.90
20504;DHT22;10410;51.046;6.980;2023-09-18T21:11:06;17.00;99.90
20504;DHT22;10410;51.046;6.980;2023-09-18T21:18:07;17.10;99.90
20504;DHT22;10410;51.046;6.980;2023-09-18T21:25:09;17.20;99.90
20504;DHT22;10410;51.046;6.980;2023-09-18T21:32:09;17.20;99.90
20504;DHT22;10410;51.046;6.980;2023-09-18T21:39:10;17.20;99.90
20504;DHT22;10410;51.046;6.980;2023-09-18T21:46:14;17.20;99.90
20504;DHT22;10410;51.046;6.980;2023-09-18T21:53:14;17.30;99.90
20504;DHT22;10410;51.046;6.980;2023-09-18T22:00:15;17.30;99.90
20504;DHT22;10410;51.046;6.980;2023-09-18T22:07:19;17.20;99.90
20504;DHT22;10410;51.046;6.980;2023-09-18T22:14:20;17.20;99.90
20504;DHT22;10410;51.046;6.980;2023-09-18T22:21:21;17.10;99.90
20504;DHT22;10410;51.046;6.980;2023-09-18T22:28:23;17.10;99.90
20504;DHT22;10410;51.046;6.980;2023-09-18T22:35:23;17.00;99.90
20504;DHT22;10410;51.046;6.980;2023-09-18T22:57:05;16.90;99.90
20504;DHT22;10410;51.046;6.980;2023-09-18T23:04:05;16.80;99.90
20504;DHT22;10410;51.046;6.980;2023-09-18T23:11:06;16.80;99.90
20504;DHT22;10410;51.046;6.980;2023-09-18T23:18:06;16.70;99.90
20504;DHT22;10410;51.046;6.980;2023-09-18T23:25:12;16.60;99.90
20504;DHT22;10410;51.046;6.980;2023-09-18T23:32:13;16.60;99.90
20504;DHT22;10410;51.046;6.980;2023-09-18T23:39:13;16.50;99.90
20504;DHT22;10410;51.046;6.980;2023-09-18T23:46:19;16.50;99.90
20504;DHT22;10410;51.046;6.980;2023-09-18T23:53:24;16.40;99.90
